Time,TemperatureF,DewpointF,PressureIn,WindDirection,WindDirectionDegrees,WindSpeedMPH,WindSpeedGustMPH,Humidity,HourlyPrecipIn,Conditions,Clouds,dailyrainin,SoftwareType,DateUTC
2013-02-18 00:09:00,21.4,-9.1,30.20,WNW,282,8.0,17.0,25,0.00,CLR,,0.00,WeatherDisplay:10.37,2013-02-18 05:09:00,
2013-02-18 00:19:00,21.4,-9.1,30.20,WNW,283,9.0,15.0,25,0.00,CLR,,0.00,WeatherDisplay:10.37,2013-02-18 05:19:00,
2013-02-18 00:29:00,21.2,-9.2,30.20,WNW,285,8.0,17.0,25,0.00,CLR,,0.00,WeatherDisplay:10.37,2013-02-18 05:29:00,
2013-02-18 00:39:00,21.0,-9.4,30.20,WNW,289,7.0,12.0,25,0.00,CLR,,0.00,WeatherDisplay:10.37,2013-02-18 05:39:00,
2013-02-18 00:49:00,20.8,-9.5,30.20,WNW,297,6.0,12.0,25,0.00,CLR,,0.00,WeatherDisplay:10.37,2013-02-18 05:49:00,
2013-02-18 00:59:00,20.7,-9.7,30.20,NW,307,5.0,13.0,25,0.00,CLR,,0.00,WeatherDisplay:10.37,2013-02-18 05:59:00,
2013-02-18 01:09:00,20.7,-9.7,30.23,WNW,299,5.0,13.0,25,0.00,CLR,,0.00,WeatherDisplay:10.37,2013-02-18 06:09:00,
2013-02-18 01:19:00,20.7,-9.7,30.23,WNW,299,6.0,13.0,25,0.00,CLR,,0.00,WeatherDisplay:10.37,2013-02-18 06:19:00,
2013-02-18 01:29:00,20.5,-9.8,30.23,WNW,299,8.0,12.0,25,0.00,CLR,,0.00,WeatherDisplay:10.37,2013-02-18 06:29:00,
2013-02-18 01:39:00,20.5,-9.8,30.23,WNW,288,9.0,14.0,25,0.00,CLR,,0.00,WeatherDisplay:10.37,2013-02-18 06:39:00,
2013-02-18 01:49:00,20.5,-9.8,30.23,WNW,282,9.0,20.0,25,0.00,CLR,,0.00,WeatherDisplay:10.37,2013-02-18 06:49:00,
2013-02-18 01:59:00,20.3,-10.0,30.23,WNW,296,8.0,15.0,25,0.00,CLR,,0.00,WeatherDisplay:10.37,2013-02-18 06:59:00,
2013-02-18 02:09:00,20.3,-10.0,30.23,WNW,295,7.0,13.0,25,0.00,CLR,,0.00,WeatherDisplay:10.37,2013-02-18 07:09:00,
2013-02-18 02:19:00,19.9,-10.3,30.23,NW,315,5.0,15.0,25,0.00,CLR,,0.00,WeatherDisplay:10.37,2013-02-18 07:19:00,
2013-02-18 02:29:00,19.8,-10.5,30.23,WNW,301,5.0,8.0,25,0.00,CLR,,0.00,WeatherDisplay:10.37,2013-02-18 07:29:00,
2013-02-18 02:39:00,19.6,-10.6,30.23,WNW,298,6.0,8.0,25,0.00,CLR,,0.00,WeatherDisplay:10.37,2013-02-18 07:39:00,
2013-02-18 02:49:00,19.4,-10.8,30.23,WNW,295,3.0,12.0,25,0.00,CLR,,0.00,WeatherDisplay:10.37,2013-02-18 07:49:00,
2013-02-18 02:59:00,19.4,-10.8,30.23,WNW,292,6.0,11.0,25,0.00,CLR,,0.00,WeatherDisplay:10.37,2013-02-18 07:59:00,
2013-02-18 03:09:00,19.6,-10.6,30.26,WNW,288,6.0,11.0,25,0.00,CLR,,0.00,WeatherDisplay:10.37,2013-02-18 08:09:00,
2013-02-18 03:19:00,19.6,-10.6,30.26,WNW,282,9.0,12.0,25,0.00,CLR,,0.00,WeatherDisplay:10.37,2013-02-18 08:19:00,
2013-02-18 03:29:00,19.4,-8.5,30.23,West,273,8.0,12.0,28,0.00,CLR,,0.00,WeatherDisplay:10.37,2013-02-18 08:29:00,
2013-02-18 03:39:00,19.0,-8.8,30.23,West,273,3.0,10.0,28,0.00,CLR,,0.00,WeatherDisplay:10.37,2013-02-18 08:39:00,
2013-02-18 03:49:00,18.9,-8.9,30.23,West,279,0.0,8.0,28,0.00,CLR,,0.00,WeatherDisplay:10.37,2013-02-18 08:49:00,
2013-02-18 03:59:00,18.3,-9.4,30.23,WNW,298,5.0,7.0,28,0.00,CLR,,0.00,WeatherDisplay:10.37,2013-02-18 08:59:00,
2013-02-18 04:09:00,18.1,-9.6,30.23,WNW,292,7.0,9.0,28,0.00,CLR,,0.00,WeatherDisplay:10.37,2013-02-18 09:09:00,
2013-02-18 04:19:00,18.0,-8.3,30.23,West,280,5.0,8.0,30,0.00,CLR,,0.00,WeatherDisplay:10.37,2013-02-18 09:19:00,
2013-02-18 04:29:00,18.3,-8.0,30.26,WSW,254,0.0,6.0,30,0.00,CLR,,0.00,WeatherDisplay:10.37,2013-02-18 09:29:00,
2013-02-18 04:39:00,18.0,-8.3,30.26,SW,222,2.0,4.0,30,0.00,CLR,,0.00,WeatherDisplay:10.37,2013-02-18 09:39:00,
2013-02-18 04:49:00,17.2,-8.3,30.26,West,273,5.0,6.0,31,0.00,CLR,,0.00,WeatherDisplay:10.37,2013-02-18 09:49:00,
2013-02-18 04:59:00,17.2,-7.0,30.29,WNW,296,6.0,8.0,33,0.00,CLR,,0.00,WeatherDisplay:10.37,2013-02-18 09:59:00,
2013-02-18 05:09:00,17.3,-6.3,30.29,WNW,285,5.0,8.0,34,0.00,CLR,,0.00,WeatherDisplay:10.37,2013-02-18 10:09:00,
2013-02-18 05:19:00,17.8,-6.5,30.29,West,267,3.0,9.0,33,0.00,CLR,,0.00,WeatherDisplay:10.37,2013-02-18 10:19:00,
2013-02-18 05:29:00,17.4,-6.9,30.29,SW,236,0.0,6.0,33,0.00,CLR,,0.00,WeatherDisplay:10.37,2013-02-18 10:29:00,
2013-02-18 05:39:00,16.7,-7.5,30.29,SW,232,3.0,4.0,33,0.00,CLR,,0.00,WeatherDisplay:10.37,2013-02-18 10:39:00,
2013-02-18 05:49:00,15.7,-7.7,30.29,WNW,283,5.0,6.0,34,0.00,CLR,,0.00,WeatherDisplay:10.37,2013-02-18 10:49:00,
2013-02-18 05:59:00,15.6,-7.2,30.29,WNW,291,6.0,6.0,35,0.00,CLR,,0.00,WeatherDisplay:10.37,2013-02-18 10:59:00,
2013-02-18 06:09:00,16.9,-6.1,30.29,WNW,285,3.0,9.0,35,0.00,CLR,,0.00,WeatherDisplay:10.37,2013-02-18 11:09:00,
2013-02-18 06:19:00,16.5,-6.4,30.29,WNW,282,0.0,5.0,35,0.00,CLR,,0.00,WeatherDisplay:10.37,2013-02-18 11:19:00,
2013-02-18 06:39:00,16.7,-6.3,30.32,West,266,2.0,6.0,35,0.00,CLR,,0.00,WeatherDisplay:10.37,2013-02-18 11:39:00,
2013-02-18 06:49:00,16.0,-6.9,30.32,West,261,0.0,3.0,35,0.00,CLR,,0.00,WeatherDisplay:10.37,2013-02-18 11:49:00,
2013-02-18 06:59:00,15.3,-7.5,30.32,West,261,0.0,0.0,35,0.00,CLR,,0.00,WeatherDisplay:10.37,2013-02-18 11:59:00,
2013-02-18 07:09:00,14.7,-8.0,30.32,West,277,3.0,4.0,35,0.00,CLR,,0.00,WeatherDisplay:10.37,2013-02-18 12:09:00,
2013-02-18 07:19:00,14.7,-7.5,30.32,WNW,292,3.0,4.0,36,0.00,CLR,,0.00,WeatherDisplay:10.37,2013-02-18 12:19:00,
2013-02-18 07:29:00,15.1,-6.6,30.32,NW,304,2.0,4.0,37,0.00,CLR,,0.00,WeatherDisplay:10.37,2013-02-18 12:29:00,
2013-02-18 07:39:00,15.6,-5.5,30.32,NW,323,0.0,4.0,38,0.00,CLR,,0.00,WeatherDisplay:10.37,2013-02-18 12:39:00,
2013-02-18 07:49:00,16.5,-4.7,30.32,NW,323,0.0,0.0,38,0.00,CLR,,0.00,WeatherDisplay:10.37,2013-02-18 12:49:00,
2013-02-18 07:59:00,18.0,-3.4,30.32,NW,323,0.0,0.0,38,0.00,CLR,,0.00,WeatherDisplay:10.37,2013-02-18 12:59:00,
2013-02-18 08:09:00,19.8,-1.7,30.34,WNW,295,5.0,8.0,38,0.00,CLR,,0.00,WeatherDisplay:10.37,2013-02-18 13:09:00,
2013-02-18 08:19:00,20.8,-3.2,30.34,WNW,288,5.0,10.0,34,0.00,CLR,,0.00,WeatherDisplay:10.37,2013-02-18 13:19:00,
2013-02-18 08:29:00,21.2,-2.8,30.34,West,279,5.0,8.0,34,0.00,CLR,,0.00,WeatherDisplay:10.37,2013-02-18 13:29:00,
2013-02-18 08:39:00,22.1,-2.7,30.34,WNW,293,7.0,9.0,33,0.00,CLR,,0.00,WeatherDisplay:10.37,2013-02-18 13:39:00,
2013-02-18 08:49:00,22.3,-3.2,30.34,WNW,291,5.0,11.0,32,0.00,CLR,,0.00,WeatherDisplay:10.37,2013-02-18 13:49:00,
2013-02-18 08:59:00,23.0,-2.6,30.34,WNW,301,6.0,9.0,32,0.00,CLR,,0.00,WeatherDisplay:10.37,2013-02-18 13:59:00,
2013-02-18 09:09:00,23.4,-4.3,30.34,NW,304,6.0,11.0,29,0.00,CLR,,0.00,WeatherDisplay:10.37,2013-02-18 14:09:00,
2013-02-18 09:19:00,23.7,-1.9,30.34,WNW,282,8.0,13.0,32,0.00,CLR,,0.00,WeatherDisplay:10.37,2013-02-18 14:19:00,
2013-02-18 09:29:00,24.0,-1.6,30.34,West,270,8.0,13.0,32,0.00,CLR,,0.00,WeatherDisplay:10.37,2013-02-18 14:29:00,
2013-02-18 09:39:00,24.5,-1.2,30.34,West,277,6.0,10.0,32,0.00,CLR,,0.00,WeatherDisplay:10.37,2013-02-18 14:39:00,
2013-02-18 09:49:00,25.4,-2.5,30.34,WNW,284,7.0,12.0,29,0.00,CLR,,0.00,WeatherDisplay:10.37,2013-02-18 14:49:00,
2013-02-18 09:59:00,25.7,-4.5,30.34,WNW,292,6.0,13.0,26,0.00,CLR,,0.00,WeatherDisplay:10.37,2013-02-18 14:59:00,
2013-02-18 10:09:00,26.2,-4.1,30.34,WNW,297,9.0,13.0,26,0.00,CLR,,0.00,WeatherDisplay:10.37,2013-02-18 15:09:00,
2013-02-18 10:19:00,27.0,-3.4,30.34,WNW,287,8.0,10.0,26,0.00,CLR,,0.00,WeatherDisplay:10.37,2013-02-18 15:19:00,
2013-02-18 10:29:00,27.3,-4.0,30.34,West,272,6.0,13.0,25,0.00,CLR,,0.00,WeatherDisplay:10.37,2013-02-18 15:29:00,
2013-02-18 10:39:00,27.6,-5.4,30.34,WNW,288,6.0,11.0,23,0.00,CLR,,0.00,WeatherDisplay:10.37,2013-02-18 15:39:00,
2013-02-18 10:49:00,28.0,-5.1,30.34,NW,307,6.0,10.0,23,0.00,CLR,,0.00,WeatherDisplay:10.37,2013-02-18 15:49:00,
2013-02-18 10:59:00,28.6,-4.6,30.34,West,279,5.0,11.0,23,0.00,CLR,,0.00,WeatherDisplay:10.37,2013-02-18 15:59:00,
2013-02-18 11:09:00,28.8,-4.5,30.34,NW,311,6.0,9.0,23,0.00,CLR,,0.00,WeatherDisplay:10.37,2013-02-18 16:09:00,
2013-02-18 11:19:00,29.0,-5.2,30.34,WNW,283,6.0,8.0,22,0.00,CLR,,0.00,WeatherDisplay:10.37,2013-02-18 16:19:00,
2013-02-18 11:29:00,30.0,-6.3,30.32,WNW,302,6.0,8.0,20,0.00,CLR,,0.00,WeatherDisplay:10.37,2013-02-18 16:29:00,
2013-02-18 11:39:00,30.6,-5.8,30.32,West,275,6.0,8.0,20,0.00,CLR,,0.00,WeatherDisplay:10.37,2013-02-18 16:39:00,
2013-02-18 11:49:00,30.7,-5.7,30.32,West,267,2.0,8.0,20,0.00,CLR,,0.00,WeatherDisplay:10.37,2013-02-18 16:49:00,
2013-02-18 11:59:00,31.3,-5.2,30.32,West,270,2.0,6.0,20,0.00,CLR,,0.00,WeatherDisplay:10.37,2013-02-18 16:59:00,
2013-02-18 12:09:00,32.4,-4.3,30.32,SW,231,5.0,7.0,20,0.00,CLR,,0.00,WeatherDisplay:10.37,2013-02-18 17:09:00,
2013-02-18 12:19:00,32.5,-4.2,30.32,WNW,297,5.0,8.0,20,0.00,CLR,,0.00,WeatherDisplay:10.37,2013-02-18 17:19:00,
2013-02-18 12:29:00,32.9,-3.9,30.29,West,278,3.0,6.0,20,0.00,CLR,,0.00,WeatherDisplay:10.37,2013-02-18 17:29:00,
2013-02-18 12:39:00,34.0,-3.0,30.29,West,281,5.0,8.0,20,0.00,CLR,,0.00,WeatherDisplay:10.37,2013-02-18 17:39:00,
2013-02-18 12:49:00,34.0,-6.4,30.29,WSW,246,1.0,6.0,17,0.00,CLR,,0.00,WeatherDisplay:10.37,2013-02-18 17:49:00,
2013-02-18 12:59:00,34.3,-6.1,30.29,WSW,239,3.0,8.0,17,0.00,CLR,,0.00,WeatherDisplay:10.37,2013-02-18 17:59:00,
2013-02-18 13:09:00,35.0,-5.5,30.29,SW,232,3.0,6.0,17,0.00,CLR,,0.00,WeatherDisplay:10.37,2013-02-18 18:09:00,
2013-02-18 13:19:00,35.4,-5.2,30.29,SW,230,5.0,6.0,17,0.00,CLR,,0.00,WeatherDisplay:10.37,2013-02-18 18:19:00,
2013-02-18 13:29:00,36.0,-4.7,30.26,SSW,200,3.0,6.0,17,0.00,CLR,,0.00,WeatherDisplay:10.37,2013-02-18 18:29:00,
2013-02-18 13:39:00,36.2,-4.5,30.26,WSW,242,3.0,8.0,17,0.00,CLR,,0.00,WeatherDisplay:10.37,2013-02-18 18:39:00,
2013-02-18 13:49:00,36.5,-4.3,30.26,WSW,247,2.0,8.0,17,0.00,CLR,,0.00,WeatherDisplay:10.37,2013-02-18 18:49:00,
2013-02-18 13:59:00,37.0,-3.8,30.26,WSW,244,5.0,6.0,17,0.00,CLR,,0.00,WeatherDisplay:10.37,2013-02-18 18:59:00,
2013-02-18 14:09:00,37.2,-3.7,30.23,WNW,291,3.0,8.0,17,0.00,CLR,,0.00,WeatherDisplay:10.37,2013-02-18 19:09:00,
2013-02-18 14:19:00,37.8,-4.5,30.23,SSE,150,6.0,9.0,16,0.00,CLR,,0.00,WeatherDisplay:10.37,2013-02-18 19:19:00,
2013-02-18 14:29:00,38.7,-3.8,30.23,South,172,3.0,9.0,16,0.00,CLR,,0.00,WeatherDisplay:10.37,2013-02-18 19:29:00,
2013-02-18 14:39:00,39.4,-3.2,30.23,SW,233,6.0,8.0,16,0.00,CLR,,0.00,WeatherDisplay:10.37,2013-02-18 19:39:00,
2013-02-18 14:49:00,39.8,-2.9,30.23,South,184,7.0,9.0,16,0.00,CLR,,0.00,WeatherDisplay:10.37,2013-02-18 19:49:00,
2013-02-18 14:59:00,40.3,-2.4,30.23,SSW,198,0.0,8.0,16,0.00,CLR,,0.00,WeatherDisplay:10.37,2013-02-18 19:59:00,
2013-02-18 15:09:00,41.0,-1.9,30.23,South,180,3.0,8.0,16,0.00,CLR,,0.00,WeatherDisplay:10.37,2013-02-18 20:09:00,
2013-02-18 15:19:00,40.9,-1.9,30.23,South,177,2.0,8.0,16,0.00,CLR,,0.00,WeatherDisplay:10.37,2013-02-18 20:19:00,
2013-02-18 15:29:00,41.7,-1.3,30.20,SSW,192,5.0,8.0,16,0.00,CLR,,0.00,WeatherDisplay:10.37,2013-02-18 20:29:00,
2013-02-18 15:39:00,41.9,-1.1,30.23,SSE,153,2.0,6.0,16,0.00,CLR,,0.00,WeatherDisplay:10.37,2013-02-18 20:39:00,
2013-02-18 15:49:00,41.4,-1.6,30.23,South,173,6.0,8.0,16,0.00,CLR,,0.00,WeatherDisplay:10.37,2013-02-18 20:49:00,
2013-02-18 15:59:00,40.8,-2.0,30.23,SE,142,7.0,10.0,16,0.00,CLR,,0.00,WeatherDisplay:10.37,2013-02-18 20:59:00,
2013-02-18 16:09:00,40.8,-2.0,30.20,SSE,166,6.0,9.0,16,0.00,CLR,,0.00,WeatherDisplay:10.37,2013-02-18 21:09:00,
2013-02-18 16:19:00,40.8,-2.0,30.20,SSE,158,6.0,11.0,16,0.00,CLR,,0.00,WeatherDisplay:10.37,2013-02-18 21:19:00,
2013-02-18 16:29:00,40.8,-2.0,30.20,SSE,154,6.0,9.0,16,0.00,CLR,,0.00,WeatherDisplay:10.37,2013-02-18 21:29:00,
2013-02-18 16:39:00,40.6,-2.2,30.20,SSE,150,7.0,10.0,16,0.00,CLR,,0.00,WeatherDisplay:10.37,2013-02-18 21:39:00,
2013-02-18 16:49:00,40.4,-2.4,30.20,SSE,153,5.0,8.0,16,0.00,CLR,,0.00,WeatherDisplay:10.37,2013-02-18 21:49:00,
2013-02-18 16:59:00,40.1,-2.6,30.20,SSE,158,5.0,11.0,16,0.00,CLR,,0.00,WeatherDisplay:10.37,2013-02-18 21:59:00,
2013-02-18 17:09:00,39.9,-2.7,30.20,SSE,152,6.0,10.0,16,0.00,CLR,,0.00,WeatherDisplay:10.37,2013-02-18 22:09:00,
2013-02-18 17:19:00,39.6,-3.0,30.20,SE,139,5.0,7.0,16,0.00,CLR,,0.00,WeatherDisplay:10.37,2013-02-18 22:19:00,
2013-02-18 17:29:00,39.0,-3.5,30.20,SE,139,5.0,8.0,16,0.00,CLR,,0.00,WeatherDisplay:10.37,2013-02-18 22:29:00,
2013-02-18 17:39:00,38.8,-3.6,30.23,SE,140,6.0,9.0,16,0.00,CLR,,0.00,WeatherDisplay:10.37,2013-02-18 22:39:00,
2013-02-18 17:49:00,38.7,-3.8,30.23,SE,126,6.0,12.0,16,0.00,CLR,,0.00,WeatherDisplay:10.37,2013-02-18 22:49:00,
2013-02-18 17:59:00,38.1,-4.2,30.20,ESE,116,5.0,8.0,16,0.00,CLR,,0.00,WeatherDisplay:10.37,2013-02-18 22:59:00,
2013-02-18 18:09:00,37.9,-4.4,30.20,ESE,117,6.0,9.0,16,0.00,CLR,,0.00,WeatherDisplay:10.37,2013-02-18 23:09:00,
2013-02-18 18:19:00,37.6,-4.7,30.20,ESE,113,7.0,8.0,16,0.00,CLR,,0.00,WeatherDisplay:10.37,2013-02-18 23:19:00,
2013-02-18 18:29:00,37.2,-3.7,30.20,ESE,110,6.0,9.0,17,0.00,CLR,,0.00,WeatherDisplay:10.37,2013-02-18 23:29:00,
2013-02-18 18:39:00,37.2,-3.7,30.20,ESE,117,6.0,9.0,17,0.00,CLR,,0.00,WeatherDisplay:10.37,2013-02-18 23:39:00,
2013-02-18 18:49:00,37.2,-3.7,30.20,SE,125,7.0,10.0,17,0.00,CLR,,0.00,WeatherDisplay:10.37,2013-02-18 23:49:00,
2013-02-18 18:59:00,37.8,-4.5,30.20,SE,129,8.0,13.0,16,0.00,CLR,,0.00,WeatherDisplay:10.37,2013-02-18 23:59:00,
2013-02-18 19:09:00,38.3,-4.1,30.20,SE,128,6.0,12.0,16,0.00,CLR,,0.00,WeatherDisplay:10.37,2013-02-19 00:09:00,
2013-02-18 19:19:00,38.3,-4.1,30.20,SE,124,8.0,12.0,16,0.00,CLR,,0.00,WeatherDisplay:10.37,2013-02-19 00:19:00,
2013-02-18 19:29:00,38.7,-3.8,30.20,SE,132,9.0,12.0,16,0.00,CLR,,0.00,WeatherDisplay:10.37,2013-02-19 00:29:00,
2013-02-18 19:39:00,38.3,-4.0,30.20,SE,128,10.0,15.0,16,0.00,CLR,,0.00,WeatherDisplay:10.37,2013-02-19 00:39:00,
2013-02-18 19:49:00,37.8,-4.5,30.20,SE,129,10.0,13.0,16,0.00,CLR,,0.00,WeatherDisplay:10.37,2013-02-19 00:49:00,
2013-02-18 19:59:00,37.9,-4.4,30.20,SE,124,8.0,15.0,16,0.00,CLR,,0.00,WeatherDisplay:10.37,2013-02-19 00:59:00,
2013-02-18 20:09:00,37.9,-4.4,30.20,SE,126,8.0,13.0,16,0.00,CLR,,0.00,WeatherDisplay:10.37,2013-02-19 01:09:00,
2013-02-18 20:19:00,38.3,-4.1,30.20,SE,127,9.0,15.0,16,0.00,CLR,,0.00,WeatherDisplay:10.37,2013-02-19 01:19:00,
2013-02-18 20:29:00,37.8,-4.5,30.17,SE,139,7.0,13.0,16,0.00,CLR,,0.00,WeatherDisplay:10.37,2013-02-19 01:29:00,
2013-02-18 20:39:00,37.6,-4.7,30.17,SE,139,8.0,15.0,16,0.00,CLR,,0.00,WeatherDisplay:10.37,2013-02-19 01:39:00,
2013-02-18 20:49:00,37.8,-4.5,30.17,SSE,148,9.0,13.0,16,0.00,CLR,,0.00,WeatherDisplay:10.37,2013-02-19 01:49:00,
2013-02-18 20:59:00,38.8,-3.7,30.17,SE,137,9.0,17.0,16,0.00,CLR,,0.00,WeatherDisplay:10.37,2013-02-19 01:59:00,
2013-02-18 21:09:00,38.7,-3.8,30.17,SE,138,12.0,16.0,16,0.00,CLR,,0.00,WeatherDisplay:10.37,2013-02-19 02:09:00,
2013-02-18 21:19:00,38.8,-3.6,30.17,SE,139,13.0,17.0,16,0.00,CLR,,0.00,WeatherDisplay:10.37,2013-02-19 02:19:00,
2013-02-18 21:29:00,38.8,-3.6,30.17,SE,133,9.0,13.0,16,0.00,CLR,,0.00,WeatherDisplay:10.37,2013-02-19 02:29:00,
2013-02-18 21:39:00,38.3,-4.1,30.17,SE,135,8.0,13.0,16,0.00,CLR,,0.00,WeatherDisplay:10.37,2013-02-19 02:39:00,
2013-02-18 21:49:00,37.9,-4.4,30.17,SE,129,8.0,13.0,16,0.00,CLR,,0.00,WeatherDisplay:10.37,2013-02-19 02:49:00,
2013-02-18 21:59:00,38.8,-3.6,30.17,SSE,149,12.0,20.0,16,0.00,CLR,,0.00,WeatherDisplay:10.37,2013-02-19 02:59:00,
2013-02-18 22:09:00,38.7,-3.7,30.14,SE,137,9.0,14.0,16,0.00,CLR,,0.00,WeatherDisplay:10.37,2013-02-19 03:09:00,
2013-02-18 22:19:00,39.3,-3.2,30.14,SE,146,8.0,15.0,16,0.00,CLR,,0.00,WeatherDisplay:10.37,2013-02-19 03:19:00,
2013-02-18 22:29:00,39.9,-2.7,30.14,SSE,150,8.0,15.0,16,0.00,CLR,,0.00,WeatherDisplay:10.37,2013-02-19 03:29:00,
2013-02-18 22:39:00,40.1,-2.6,30.14,SE,142,9.0,15.0,16,0.00,CLR,,0.00,WeatherDisplay:10.37,2013-02-19 03:39:00,
2013-02-18 22:49:00,40.1,-2.6,30.14,SE,142,9.0,13.0,16,0.00,CLR,,0.00,WeatherDisplay:10.37,2013-02-19 03:49:00,
2013-02-18 22:59:00,40.4,-2.4,30.14,SSE,148,12.0,20.0,16,0.00,CLR,,0.00,WeatherDisplay:10.37,2013-02-19 03:59:00,
2013-02-18 23:09:00,40.5,-2.3,30.14,SE,141,9.0,17.0,16,0.00,CLR,,0.00,WeatherDisplay:10.37,2013-02-19 04:09:00,
2013-02-18 23:19:00,39.2,-3.3,30.14,SE,125,7.0,13.0,16,0.00,CLR,,0.00,WeatherDisplay:10.37,2013-02-19 04:19:00,
2013-02-18 23:29:00,38.1,-4.2,30.14,ESE,123,7.0,12.0,16,0.00,CLR,,0.00,WeatherDisplay:10.37,2013-02-19 04:29:00,
2013-02-18 23:39:00,37.9,-4.4,30.11,SE,126,7.0,13.0,16,0.00,CLR,,0.00,WeatherDisplay:10.37,2013-02-19 04:39:00,
2013-02-18 23:49:00,38.3,-4.1,30.11,SE,130,5.0,13.0,16,0.00,CLR,,0.00,WeatherDisplay:10.37,2013-02-19 04:49:00,
2013-02-18 23:59:00,37.8,-4.5,30.14,ESE,117,7.0,10.0,16,0.00,CLR,,0.00,WeatherDisplay:10.37,2013-02-19 04:59:00,